Las Vegas, Nevada (DRI) Weather observations

Data are for observation ending at time listed.
 Day   Time    Ave.   Ave.  Ave.  Vector   Max.   Stn.    Total    Solar   Ave.  
  of    of     Air    Rel.  Wind   Wind    Wind   Baro.  Precip.   Rad.    Soil  
Year   Day     Temp.  Hum.  Speed  Dir.    Gust   Pres.                    Temp. 
2016   (PST)    F      %     mph   deg.    mph     mb.     in.     W/m2     F   
------------------------------------------------------------------------------
 273    9:30   82.2    34    1.2   180      2.9   949.2    0.00     712    84.3
 273    9:40   82.0    34    1.5   195      4.5   949.1    0.00     737    84.2
 273    9:50   83.0    33    1.3    33      4.4   949.1    0.00     761    84.1
 273   10:00   82.8    33    1.7   108      4.2   949.1    0.00     785    84.0
 273   10:10   83.0    33    1.7   203      6.9   949.0    0.00     807    84.0
 273   10:20   82.9    33    2.2    55      6.4   948.8    0.00     808    83.9
 273   10:30   83.2    33    1.9    39      5.3   948.8    0.00     731    83.9
 273   10:40   83.3    32    2.0    40      5.3   948.7    0.00     868    83.9
 273   10:50   84.4    32    1.4    40      4.2   948.6    0.00     857    83.8
 273   11:00   84.4    32    1.4   167      4.7   948.4    0.00     861    83.8
 273   11:10   84.2    32    1.9    43      5.1   948.3    0.00     868    83.8
 273   11:20   85.8    30    0.9    32      3.3   948.1    0.00     873    83.8
 273   11:30   86.7    29    1.2   309      4.2   948.0    0.00     874    83.9
 273   11:40   87.4    28    1.2    55      5.0   947.8    0.00     875    83.9
 273   11:50   86.8    28    1.9    42      4.9   947.7    0.00     875    83.9
 273   12:00   87.2    28    1.5    42      5.3   947.5    0.00     875    84.0
 273   12:10   88.4    26    2.2   186      6.8   947.3    0.00     872    84.1
 273   12:20   89.2    25    0.8   216      3.7   947.2    0.00     866    84.2
 273   12:30   89.8    25    1.8   187      5.4   947.0    0.00     855    84.3
 273   12:40   89.7    24    2.3   186      8.1   946.8    0.00     843    84.5
 273   12:50   89.2    23    2.3   173      8.0   946.6    0.00     826    84.7
 273   13:00   89.7    23    3.7   180      9.8   946.4    0.00     817    84.9
 273   13:10   89.8    23    3.9   178      9.9   946.2    0.00     799    85.0
 273   13:20   90.2    23    1.7    11      5.8   946.1    0.00     779    85.2
 273   13:30   90.7    24    1.9    89      5.9   946.0    0.00     771    85.4
 273   13:40   91.0    24    1.5    70      6.2   945.9    0.00     768    85.6
 273   13:50   90.5    24    1.3    34      4.4   945.8    0.00     717    85.9
 273   14:00   90.9    23    1.9    48      5.6   945.6    0.00     696    86.1
 273   14:10   91.8    23    2.8   181      7.7   945.5    0.00     654    86.3
 273   14:20   91.6    23    2.7    48      7.6   945.4    0.00     581    86.5
 273   14:30   91.6    22    2.5   185      7.7   945.3    0.00     612    86.8
 273   14:40   92.2    22    2.9   179     11.4   945.2    0.00     588    87.0
 273   14:50   90.9    22    2.8   146      9.6   945.1    0.00     263    87.2
 273   15:00   92.0    22    1.6   215      7.2   945.1    0.00     503    87.5
 273   15:10   92.6    22    2.5   182      8.0   945.1    0.00     504    87.7
 273   15:20   92.9    21    1.4    32      4.5   945.0    0.00     469    87.9
 273   15:30   90.1    23    2.1    47      6.9   944.9    0.00     145    88.2
 273   15:40   89.7    24    1.8   180      6.5   944.9    0.00     133    88.4
 273   15:50   89.7    23    1.4    45      4.2   944.9    0.00     181    88.6
 273   16:00   89.5    24    0.8    50      3.7   944.9    0.00      70    88.7
 273   16:10   89.5    24    0.7    37      2.7   944.9    0.00      82    89.0
 273   16:20   89.8    23    0.5    42      2.8   944.8    0.00     119    89.2
 273   16:30   89.4    24    0.6    34      3.1   944.7    0.00      64    89.4
 273   16:40   89.1    24    1.2    46      4.7   944.7    0.00     135    89.5
 273   16:50   89.0    24    1.6    50      6.1   944.7    0.00      81    89.6
 273   17:00   89.4    24    0.3   189      4.3   944.8    0.00      66    89.7
 273   17:10   89.3    23    1.8   176      6.9   944.7    0.00      34    89.9
 273   17:20   88.3    24    1.6   177      6.0   944.7    0.00      13    90.0
 273   17:30   87.9    24    1.6   173      5.3   944.8    0.00       6    90.1
 273   17:40   87.5    24    1.6   170      7.2   944.8    0.00       3    90.2
 273   17:50   87.3    24    1.1   178      3.8   944.9    0.00       3    90.2
 273   18:00   87.2    25    0.3   182      4.1   944.9    0.00       2    90.3
 273   18:10   86.8    25    0.2   174      3.4   945.0    0.00       2    90.3
 273   18:20   86.6    26    0.3   161      4.1   945.1    0.00       1    90.4
 273   18:30   86.5    26    0.1   346      1.8   945.1    0.00       1    90.4
 273   18:40   86.2    27    0.1   335      1.2   945.2    0.00       1    90.4
 273   18:50   85.7    28    0.0   310      0.4   945.3    0.00       1    90.4
 273   19:00   85.4    28    0.2   203      3.9   945.3    0.00       1    90.4
 273   19:10   85.0    28    0.1   189      1.2   945.4    0.00       1    90.4
 273   19:20   84.9    28    0.0   212      0.6   945.5    0.00       1    90.4
 273   19:30   84.8    27    0.0   213      0.7   945.6    0.00       0    90.4
 273   19:40   84.8    27    0.1   311      0.9   945.7    0.00       1    90.4
 273   19:50   84.6    27    0.0   310      0.3   945.8    0.00       1    90.4
 273   20:00   84.3    28    0.0   319      0.9   945.8    0.00       1    90.3
 273   20:10   83.8    29    0.0   216      0.5   945.9    0.00       1    90.3
 273   20:20   83.1    30    0.0     0      0.0   945.9    0.00       1    90.2
 273   20:30   82.8    29    0.1   351      3.1   946.0    0.00       0    90.2
 273   20:40   82.5    30    0.0     0      0.0   946.0    0.00       1    90.1
 273   20:50   81.9    31    0.0     0      0.0   946.0    0.00       1    90.1
 273   21:00   81.6    31    0.0     0      0.0   946.1    0.00       0    90.0
 273   21:10   82.2    30    0.2   191      1.9   946.2    0.00       1    90.0
 273   21:20   82.7    29    0.0   192      0.1   946.2    0.00       0    89.9
 273   21:30   82.3    30    0.0     0      0.0   946.2    0.00       1    89.8
 273   21:40   81.4    32    0.0     0      0.0   946.2    0.00       1    89.8
 273   21:50   80.9    33    0.0     0      0.0   946.2    0.00       1    89.7
 273   22:00   80.3    34    0.1   184      0.7   946.2    0.00       0    89.7
 273   22:10   80.3    34    0.0   172      0.2   946.2    0.00       0    89.6
 273   22:20   80.6    34    0.0     0      0.0   946.3    0.00       0    89.5
 273   22:30   80.3    33    0.0     0      0.0   946.3    0.00       0    89.5
 273   22:40   80.0    33    0.3   172      3.1   946.3    0.00       0    89.3
 273   22:50   79.6    33    0.1   176      1.1   946.2    0.00       0    89.3
 273   23:00   78.5    34    0.4   193      1.5   946.2    0.00       0    89.2
 273   23:10   78.4    32    0.4   175      2.0   946.1    0.00       0    89.1
 273   23:20   78.3    32    0.3   177      1.9   946.0    0.00       0    89.1
 273   23:30   77.7    34    0.0     0      0.0   946.0    0.00       0    89.0
 273   23:40   77.9    37    0.1   237      1.5   946.0    0.00       0    88.9
 273   23:50   78.3    37    0.2   256      1.8   946.1    0.00       0    88.8
 274    0:00   78.1    36    0.2   284      2.9   946.2    0.00       0    88.8
 274    0:10   78.4    35    0.4   290      3.7   946.3    0.00       0    88.7
 274    0:20   77.8    38    0.0     0      0.0   946.3    0.00       0    88.6
 274    0:30   76.7    40    0.0     0      0.0   946.4    0.00       0    88.6
 274    0:40   75.9    42    0.0     0      0.0   946.4    0.00       0    88.5
 274    0:50   75.5    42    0.0     0      0.0   946.5    0.00       0    88.4
 274    1:00   75.6    41    0.0     0      0.0   946.5    0.00       0    88.3
 274    1:10   75.5    39    0.0     0      0.0   946.5    0.00       0    88.3
 274    1:20   75.6    34    0.0     0      0.0   946.5    0.00       0    88.2
 274    1:30   75.8    34    0.0     0      0.0   946.6    0.00       0    88.1
 274    1:40   75.6    34    0.0     0      0.0   946.6    0.00       0    88.0
 274    1:50   75.4    35    0.0     0      0.0   946.5    0.00       0    87.9
 274    2:00   75.3    38    0.0     0      0.0   946.5    0.00       0    87.9
 274    2:10   75.4    41    0.0     0      0.0   946.6    0.00       0    87.8
 274    2:20   75.1    41    0.0   331      0.1   946.6    0.00       0    87.7
 274    2:30   75.3    40    0.0     0      0.0   946.6    0.00       0    87.6
 274    2:40   75.3    40    0.1   331      1.0   946.6    0.00       0    87.6
 274    2:50   75.5    39    0.0   329      0.8   946.6    0.00       0    87.5
 274    3:00   75.6    39    0.0     0      0.0   946.6    0.00       0    87.4
 274    3:10   75.4    40    0.0     0      0.0   946.7    0.00       0    87.3
 274    3:20   75.2    40    0.0   306      0.3   946.8    0.00       0    87.2
 274    3:30   75.1    41    0.0   330      0.1   946.7    0.00       0    87.2
 274    3:40   75.1    41    0.0     0      0.0   946.8    0.00       0    87.1
 274    3:50   74.6    42    0.0     0      0.0   946.8    0.00       0    87.0
 274    4:00   73.7    45    0.0   315      0.6   946.9    0.00       0    87.0
 274    4:10   73.2    46    0.0     0      0.0   946.9    0.00       0    86.9
 274    4:20   73.5    44    0.0     0      0.0   946.9    0.00       0    86.8
 274    4:30   73.6    44    0.0     0      0.0   946.9    0.00       0    86.8
 274    4:40   73.9    43    0.0     0      0.0   947.0    0.00       0    86.7
 274    4:50   74.1    43    0.0     0      0.0   947.0    0.00       0    86.6
 274    5:00   73.5    45    0.0   304      0.1   947.1    0.00       0    86.5
 274    5:10   73.3    44    0.0     0      0.0   947.1    0.00       0    86.4
 274    5:20   74.1    41    0.0     0      0.0   947.2    0.00       0    86.4
 274    5:30   74.3    41    0.0     0      0.0   947.3    0.00       2    86.3
 274    5:40   74.2    42    0.0     0      0.0   947.3    0.00       4    86.3
 274    5:50   74.2    43    0.0    19      0.6   947.5    0.00       7    86.2
 274    6:00   74.2    44    0.1    18      1.1   947.6    0.00      18    86.1
 274    6:10   74.1    44    0.0     3      0.3   947.6    0.00      27    86.0
 274    6:20   74.0    46    0.0     0      0.0   947.7    0.00      34    86.0
 274    6:30   73.8    46    0.0     0      0.0   947.8    0.00      39    85.9
 274    6:40   74.1    45    0.0     4      0.7   947.8    0.00      33    85.8
 274    6:50   74.2    44    0.0   331      0.6   947.9    0.00      25    85.8
 274    7:00   74.9    43    0.0     0      0.0   948.0    0.00      25    85.7
 274    7:10   75.1    44    0.0   344      0.6   948.0    0.00      25    85.6
 274    7:20   75.4    44    0.0   344      0.3   948.1    0.00      28    85.6
 274    7:30   75.8    43    0.3    49      2.3   948.1    0.00      32    85.6
 274    7:40   76.4    41    0.3    54      2.6   948.1    0.00      32    85.5
 274    7:50   76.9    40    1.4    44      5.0   948.2    0.00      32    85.4
 274    8:00   77.3    38    1.0    42      5.4   948.3    0.00      36    85.4
 274    8:10   77.6    38    0.7    48      3.4   948.3    0.00     194    85.3
 274    8:20   77.8    38    0.5    49      2.6   948.3    0.00     492    85.2
 274    8:30   78.3    38    0.5    42      3.1   948.3    0.00     502    85.2
 274    8:40   78.9    38    0.4    35      3.1   948.3    0.00     568    85.1
 274    8:50   79.4    37    0.9    11      3.7   948.3    0.00     599    85.0
 274    9:00   79.8    37    0.7    56      3.4   948.3    0.00     628    85.0
 274    9:10   80.4    36    0.6    52      3.5   948.3    0.00     655    85.0
 274    9:20   81.2    34    0.8    39      4.0   948.2    0.00     680    84.9

Return to Las Vegas, Nevada graphs page.


Western Regional Climate Center,wrcc@dri.edu